sensor_id;sensor_type;location;lat;lon;timestamp;P1;durP1;ratioP1;P2;durP2;ratioP2
66886;SDS011;53798;51.680;5.976;2022-07-24T00:01:41;11.20;;;8.73;;
66886;SDS011;53798;51.680;5.976;2022-07-24T00:04:08;12.52;;;8.82;;
66886;SDS011;53798;51.680;5.976;2022-07-24T00:06:36;12.88;;;8.57;;
66886;SDS011;53798;51.680;5.976;2022-07-24T00:09:03;10.95;;;9.20;;
66886;SDS011;53798;51.680;5.976;2022-07-24T00:11:33;12.07;;;8.38;;
66886;SDS011;53798;51.680;5.976;2022-07-24T00:14:02;10.27;;;8.55;;
66886;SDS011;53798;51.680;5.976;2022-07-24T00:16:29;10.07;;;8.55;;
66886;SDS011;53798;51.680;5.976;2022-07-24T00:18:56;9.68;;;8.68;;
66886;SDS011;53798;51.680;5.976;2022-07-24T00:21:23;12.00;;;8.23;;
66886;SDS011;53798;51.680;5.976;2022-07-24T00:23:50;13.48;;;8.63;;
66886;SDS011;53798;51.680;5.976;2022-07-24T00:26:18;11.02;;;8.30;;
66886;SDS011;53798;51.680;5.976;2022-07-24T00:28:45;12.98;;;8.93;;
66886;SDS011;53798;51.680;5.976;2022-07-24T00:31:12;13.23;;;8.55;;
66886;SDS011;53798;51.680;5.976;2022-07-24T00:33:40;11.15;;;8.25;;
66886;SDS011;53798;51.680;5.976;2022-07-24T00:36:07;10.00;;;8.20;;
66886;SDS011;53798;51.680;5.976;2022-07-24T00:38:37;11.60;;;8.98;;
66886;SDS011;53798;51.680;5.976;2022-07-24T00:41:04;13.02;;;8.25;;
66886;SDS011;53798;51.680;5.976;2022-07-24T00:43:32;11.10;;;8.73;;
66886;SDS011;53798;51.680;5.976;2022-07-24T00:46:00;13.18;;;9.15;;
66886;SDS011;53798;51.680;5.976;2022-07-24T00:48:27;14.70;;;9.35;;
66886;SDS011;53798;51.680;5.976;2022-07-24T00:50:56;11.35;;;9.02;;
66886;SDS011;53798;51.680;5.976;2022-07-24T00:53:23;12.52;;;8.93;;
66886;SDS011;53798;51.680;5.976;2022-07-24T00:55:51;11.73;;;8.50;;
66886;SDS011;53798;51.680;5.976;2022-07-24T00:58:18;12.25;;;8.63;;
66886;SDS011;53798;51.680;5.976;2022-07-24T01:00:47;11.15;;;8.20;;
66886;SDS011;53798;51.680;5.976;2022-07-24T01:03:14;13.40;;;8.55;;
66886;SDS011;53798;51.680;5.976;2022-07-24T01:05:41;11.32;;;9.38;;
66886;SDS011;53798;51.680;5.976;2022-07-24T01:08:08;13.70;;;8.45;;
66886;SDS011;53798;51.680;5.976;2022-07-24T01:10:35;12.25;;;8.25;;
66886;SDS011;53798;51.680;5.976;2022-07-24T01:13:03;12.35;;;8.43;;
66886;SDS011;53798;51.680;5.976;2022-07-24T01:15:31;9.90;;;7.70;;
66886;SDS011;53798;51.680;5.976;2022-07-24T01:17:58;12.65;;;8.63;;
66886;SDS011;53798;51.680;5.976;2022-07-24T01:20:25;11.20;;;8.15;;
66886;SDS011;53798;51.680;5.976;2022-07-24T01:22:52;9.45;;;7.95;;
66886;SDS011;53798;51.680;5.976;2022-07-24T01:25:19;12.15;;;8.05;;
66886;SDS011;53798;51.680;5.976;2022-07-24T01:27:49;10.10;;;7.85;;
66886;SDS011;53798;51.680;5.976;2022-07-24T01:30:17;10.57;;;7.63;;
66886;SDS011;53798;51.680;5.976;2022-07-24T01:32:45;12.80;;;7.80;;
66886;SDS011;53798;51.680;5.976;2022-07-24T01:35:12;8.65;;;7.57;;
66886;SDS011;53798;51.680;5.976;2022-07-24T01:37:49;11.32;;;7.93;;
66886;SDS011;53798;51.680;5.976;2022-07-24T01:40:18;10.38;;;8.20;;
66886;SDS011;53798;51.680;5.976;2022-07-24T01:42:47;11.10;;;7.93;;
66886;SDS011;53798;51.680;5.976;2022-07-24T01:45:16;9.80;;;7.38;;
66886;SDS011;53798;51.680;5.976;2022-07-24T01:47:44;8.73;;;7.13;;
66886;SDS011;53798;51.680;5.976;2022-07-24T01:50:12;9.85;;;7.28;;
66886;SDS011;53798;51.680;5.976;2022-07-24T01:52:40;12.07;;;7.50;;
66886;SDS011;53798;51.680;5.976;2022-07-24T01:55:08;10.48;;;7.43;;
66886;SDS011;53798;51.680;5.976;2022-07-24T01:57:36;9.00;;;7.28;;
66886;SDS011;53798;51.680;5.976;2022-07-24T02:00:04;9.90;;;7.50;;
66886;SDS011;53798;51.680;5.976;2022-07-24T02:02:41;11.00;;;8.00;;
66886;SDS011;53798;51.680;5.976;2022-07-24T02:05:12;10.10;;;7.72;;
66886;SDS011;53798;51.680;5.976;2022-07-24T02:07:40;12.20;;;7.82;;
66886;SDS011;53798;51.680;5.976;2022-07-24T02:10:12;9.82;;;7.90;;
66886;SDS011;53798;51.680;5.976;2022-07-24T02:12:41;9.57;;;8.00;;
66886;SDS011;53798;51.680;5.976;2022-07-24T02:15:08;11.18;;;8.13;;
66886;SDS011;53798;51.680;5.976;2022-07-24T02:17:36;10.85;;;8.45;;
66886;SDS011;53798;51.680;5.976;2022-07-24T02:20:04;12.13;;;8.75;;
66886;SDS011;53798;51.680;5.976;2022-07-24T02:22:32;9.80;;;8.27;;
66886;SDS011;53798;51.680;5.976;2022-07-24T02:25:00;14.68;;;8.30;;
66886;SDS011;53798;51.680;5.976;2022-07-24T02:27:27;9.63;;;8.45;;
66886;SDS011;53798;51.680;5.976;2022-07-24T02:29:55;12.65;;;7.88;;
66886;SDS011;53798;51.680;5.976;2022-07-24T02:32:22;11.18;;;8.32;;
66886;SDS011;53798;51.680;5.976;2022-07-24T02:34:49;9.68;;;8.30;;
66886;SDS011;53798;51.680;5.976;2022-07-24T02:37:16;13.80;;;9.38;;
66886;SDS011;53798;51.680;5.976;2022-07-24T02:39:43;12.15;;;8.52;;
66886;SDS011;53798;51.680;5.976;2022-07-24T02:42:13;14.63;;;9.20;;
66886;SDS011;53798;51.680;5.976;2022-07-24T02:44:40;10.57;;;8.82;;
66886;SDS011;53798;51.680;5.976;2022-07-24T02:47:07;14.20;;;9.60;;
66886;SDS011;53798;51.680;5.976;2022-07-24T02:49:36;11.05;;;9.38;;
66886;SDS011;53798;51.680;5.976;2022-07-24T02:52:03;10.40;;;8.43;;
66886;SDS011;53798;51.680;5.976;2022-07-24T02:54:32;11.18;;;8.55;;
66886;SDS011;53798;51.680;5.976;2022-07-24T02:56:59;11.10;;;8.65;;
66886;SDS011;53798;51.680;5.976;2022-07-24T02:59:26;12.07;;;8.98;;
66886;SDS011;53798;51.680;5.976;2022-07-24T03:01:53;11.50;;;9.10;;
66886;SDS011;53798;51.680;5.976;2022-07-24T03:04:20;12.23;;;9.63;;
66886;SDS011;53798;51.680;5.976;2022-07-24T03:06:47;11.27;;;9.05;;
66886;SDS011;53798;51.680;5.976;2022-07-24T03:09:14;12.55;;;8.82;;
66886;SDS011;53798;51.680;5.976;2022-07-24T03:11:42;12.52;;;9.50;;
66886;SDS011;53798;51.680;5.976;2022-07-24T03:14:09;11.75;;;8.82;;
66886;SDS011;53798;51.680;5.976;2022-07-24T03:16:36;12.52;;;9.05;;
66886;SDS011;53798;51.680;5.976;2022-07-24T03:19:05;10.48;;;9.23;;
66886;SDS011;53798;51.680;5.976;2022-07-24T03:21:32;12.18;;;9.55;;
66886;SDS011;53798;51.680;5.976;2022-07-24T03:24:14;10.73;;;9.27;;
66886;SDS011;53798;51.680;5.976;2022-07-24T03:26:42;13.77;;;10.10;;
66886;SDS011;53798;51.680;5.976;2022-07-24T03:29:10;12.45;;;10.27;;
66886;SDS011;53798;51.680;5.976;2022-07-24T03:31:37;15.32;;;10.02;;
66886;SDS011;53798;51.680;5.976;2022-07-24T03:34:04;13.25;;;10.50;;
66886;SDS011;53798;51.680;5.976;2022-07-24T03:36:32;12.82;;;10.48;;
66886;SDS011;53798;51.680;5.976;2022-07-24T03:39:00;14.57;;;11.30;;
66886;SDS011;53798;51.680;5.976;2022-07-24T03:41:28;15.15;;;10.85;;
66886;SDS011;53798;51.680;5.976;2022-07-24T03:43:55;13.68;;;10.20;;
66886;SDS011;53798;51.680;5.976;2022-07-24T03:46:23;12.82;;;10.38;;
66886;SDS011;53798;51.680;5.976;2022-07-24T03:48:50;14.30;;;10.70;;
66886;SDS011;53798;51.680;5.976;2022-07-24T03:51:18;14.30;;;10.90;;
66886;SDS011;53798;51.680;5.976;2022-07-24T03:53:47;13.40;;;10.80;;
66886;SDS011;53798;51.680;5.976;2022-07-24T03:56:15;14.60;;;10.63;;
66886;SDS011;53798;51.680;5.976;2022-07-24T03:58:43;14.48;;;10.45;;
66886;SDS011;53798;51.680;5.976;2022-07-24T04:01:10;13.65;;;10.98;;
66886;SDS011;53798;51.680;5.976;2022-07-24T04:03:38;13.73;;;10.93;;
66886;SDS011;53798;51.680;5.976;2022-07-24T04:06:05;12.75;;;10.25;;
66886;SDS011;53798;51.680;5.976;2022-07-24T04:08:33;14.20;;;10.65;;
66886;SDS011;53798;51.680;5.976;2022-07-24T04:11:00;14.07;;;10.93;;
66886;SDS011;53798;51.680;5.976;2022-07-24T04:13:28;15.63;;;10.65;;
66886;SDS011;53798;51.680;5.976;2022-07-24T04:15:57;15.65;;;11.27;;
66886;SDS011;53798;51.680;5.976;2022-07-24T04:18:25;12.80;;;10.98;;
66886;SDS011;53798;51.680;5.976;2022-07-24T04:20:53;14.00;;;10.90;;
66886;SDS011;53798;51.680;5.976;2022-07-24T04:23:20;15.07;;;10.52;;
66886;SDS011;53798;51.680;5.976;2022-07-24T04:25:48;13.57;;;10.60;;
66886;SDS011;53798;51.680;5.976;2022-07-24T04:28:15;16.08;;;11.07;;
66886;SDS011;53798;51.680;5.976;2022-07-24T04:30:44;13.68;;;11.25;;
66886;SDS011;53798;51.680;5.976;2022-07-24T04:33:11;13.88;;;11.15;;
66886;SDS011;53798;51.680;5.976;2022-07-24T04:35:38;15.38;;;11.07;;
66886;SDS011;53798;51.680;5.976;2022-07-24T04:38:05;13.38;;;11.20;;
66886;SDS011;53798;51.680;5.976;2022-07-24T04:40:32;13.23;;;10.73;;
66886;SDS011;53798;51.680;5.976;2022-07-24T04:42:59;12.93;;;11.40;;
66886;SDS011;53798;51.680;5.976;2022-07-24T04:45:27;15.18;;;11.55;;
66886;SDS011;53798;51.680;5.976;2022-07-24T04:48:01;13.75;;;11.48;;
66886;SDS011;53798;51.680;5.976;2022-07-24T04:50:29;15.40;;;10.82;;
66886;SDS011;53798;51.680;5.976;2022-07-24T04:52:56;14.82;;;11.50;;
66886;SDS011;53798;51.680;5.976;2022-07-24T04:55:24;11.93;;;10.65;;
66886;SDS011;53798;51.680;5.976;2022-07-24T04:57:51;14.90;;;11.50;;
66886;SDS011;53798;51.680;5.976;2022-07-24T05:00:19;14.05;;;11.52;;
66886;SDS011;53798;51.680;5.976;2022-07-24T05:02:47;14.45;;;11.07;;
66886;SDS011;53798;51.680;5.976;2022-07-24T05:05:14;13.93;;;11.52;;
66886;SDS011;53798;51.680;5.976;2022-07-24T05:07:42;14.15;;;11.65;;
66886;SDS011;53798;51.680;5.976;2022-07-24T05:10:09;12.43;;;11.13;;
66886;SDS011;53798;51.680;5.976;2022-07-24T05:12:37;14.90;;;11.13;;
66886;SDS011;53798;51.680;5.976;2022-07-24T05:15:05;15.77;;;11.40;;
66886;SDS011;53798;51.680;5.976;2022-07-24T05:17:34;13.80;;;11.77;;
66886;SDS011;53798;51.680;5.976;2022-07-24T05:20:04;15.55;;;11.80;;
66886;SDS011;53798;51.680;5.976;2022-07-24T05:22:33;15.43;;;11.80;;
66886;SDS011;53798;51.680;5.976;2022-07-24T05:25:00;19.77;;;12.88;;
66886;SDS011;53798;51.680;5.976;2022-07-24T05:27:27;16.30;;;13.57;;
66886;SDS011;53798;51.680;5.976;2022-07-24T05:29:54;16.98;;;13.15;;
66886;SDS011;53798;51.680;5.976;2022-07-24T05:32:22;19.67;;;14.38;;
66886;SDS011;53798;51.680;5.976;2022-07-24T05:34:49;15.80;;;13.27;;
66886;SDS011;53798;51.680;5.976;2022-07-24T05:37:16;15.85;;;13.23;;
66886;SDS011;53798;51.680;5.976;2022-07-24T05:39:43;16.58;;;13.80;;
66886;SDS011;53798;51.680;5.976;2022-07-24T05:42:11;19.23;;;13.23;;
66886;SDS011;53798;51.680;5.976;2022-07-24T05:44:39;15.23;;;11.80;;
66886;SDS011;53798;51.680;5.976;2022-07-24T05:47:06;15.73;;;12.65;;
66886;SDS011;53798;51.680;5.976;2022-07-24T05:49:33;13.90;;;12.50;;
66886;SDS011;53798;51.680;5.976;2022-07-24T05:52:01;13.70;;;10.82;;
66886;SDS011;53798;51.680;5.976;2022-07-24T05:54:35;17.63;;;11.68;;
66886;SDS011;53798;51.680;5.976;2022-07-24T05:57:04;16.50;;;12.20;;
66886;SDS011;53798;51.680;5.976;2022-07-24T05:59:31;17.13;;;12.60;;
66886;SDS011;53798;51.680;5.976;2022-07-24T06:01:58;14.30;;;11.25;;
66886;SDS011;53798;51.680;5.976;2022-07-24T06:04:26;15.98;;;12.57;;
66886;SDS011;53798;51.680;5.976;2022-07-24T06:06:54;15.63;;;12.95;;
66886;SDS011;53798;51.680;5.976;2022-07-24T06:09:21;15.88;;;11.45;;
66886;SDS011;53798;51.680;5.976;2022-07-24T06:11:48;14.55;;;11.80;;
66886;SDS011;53798;51.680;5.976;2022-07-24T06:14:16;13.98;;;11.85;;
66886;SDS011;53798;51.680;5.976;2022-07-24T06:16:43;16.98;;;13.00;;
66886;SDS011;53798;51.680;5.976;2022-07-24T06:19:11;18.58;;;13.07;;
66886;SDS011;53798;51.680;5.976;2022-07-24T06:21:38;17.65;;;13.32;;
66886;SDS011;53798;51.680;5.976;2022-07-24T06:24:05;18.50;;;13.43;;
66886;SDS011;53798;51.680;5.976;2022-07-24T06:26:33;17.58;;;11.98;;
66886;SDS011;53798;51.680;5.976;2022-07-24T06:29:21;18.60;;;15.48;;
66886;SDS011;53798;51.680;5.976;2022-07-24T06:31:48;20.92;;;15.23;;
66886;SDS011;53798;51.680;5.976;2022-07-24T06:34:15;18.33;;;15.23;;
66886;SDS011;53798;51.680;5.976;2022-07-24T06:36:42;21.20;;;15.90;;
66886;SDS011;53798;51.680;5.976;2022-07-24T06:39:09;19.80;;;16.33;;
66886;SDS011;53798;51.680;5.976;2022-07-24T06:41:36;22.42;;;16.33;;
66886;SDS011;53798;51.680;5.976;2022-07-24T06:44:07;23.48;;;18.13;;
66886;SDS011;53798;51.680;5.976;2022-07-24T06:46:35;20.27;;;17.10;;
66886;SDS011;53798;51.680;5.976;2022-07-24T06:49:03;25.10;;;17.63;;
66886;SDS011;53798;51.680;5.976;2022-07-24T06:51:31;21.85;;;18.35;;
66886;SDS011;53798;51.680;5.976;2022-07-24T06:53:58;21.25;;;16.98;;
66886;SDS011;53798;51.680;5.976;2022-07-24T06:56:26;21.98;;;17.02;;
66886;SDS011;53798;51.680;5.976;2022-07-24T06:58:53;22.63;;;16.15;;
66886;SDS011;53798;51.680;5.976;2022-07-24T07:01:20;22.15;;;16.63;;
66886;SDS011;53798;51.680;5.976;2022-07-24T07:03:47;24.92;;;15.63;;
66886;SDS011;53798;51.680;5.976;2022-07-24T07:06:16;24.10;;;16.48;;
66886;SDS011;53798;51.680;5.976;2022-07-24T07:08:43;19.40;;;14.88;;
66886;SDS011;53798;51.680;5.976;2022-07-24T07:11:10;17.30;;;14.18;;
66886;SDS011;53798;51.680;5.976;2022-07-24T07:13:37;22.20;;;15.32;;
66886;SDS011;53798;51.680;5.976;2022-07-24T07:16:05;18.95;;;14.50;;
66886;SDS011;53798;51.680;5.976;2022-07-24T07:18:32;21.20;;;15.05;;
66886;SDS011;53798;51.680;5.976;2022-07-24T07:21:06;20.02;;;15.05;;
66886;SDS011;53798;51.680;5.976;2022-07-24T07:23:33;19.30;;;13.32;;
66886;SDS011;53798;51.680;5.976;2022-07-24T07:26:00;21.02;;;13.25;;
66886;SDS011;53798;51.680;5.976;2022-07-24T07:28:28;17.83;;;12.57;;
66886;SDS011;53798;51.680;5.976;2022-07-24T07:30:55;19.58;;;13.00;;
66886;SDS011;53798;51.680;5.976;2022-07-24T07:33:22;18.85;;;12.65;;
66886;SDS011;53798;51.680;5.976;2022-07-24T07:35:50;20.77;;;13.68;;
66886;SDS011;53798;51.680;5.976;2022-07-24T07:38:18;19.20;;;13.70;;
66886;SDS011;53798;51.680;5.976;2022-07-24T07:40:50;18.55;;;13.23;;
66886;SDS011;53798;51.680;5.976;2022-07-24T07:43:21;17.15;;;12.85;;
66886;SDS011;53798;51.680;5.976;2022-07-24T07:45:48;18.90;;;13.10;;
66886;SDS011;53798;51.680;5.976;2022-07-24T07:48:16;18.55;;;13.48;;
66886;SDS011;53798;51.680;5.976;2022-07-24T07:50:43;20.10;;;13.73;;
66886;SDS011;53798;51.680;5.976;2022-07-24T07:53:11;20.20;;;14.13;;
66886;SDS011;53798;51.680;5.976;2022-07-24T07:55:38;18.70;;;12.93;;
66886;SDS011;53798;51.680;5.976;2022-07-24T07:58:06;16.15;;;12.05;;
66886;SDS011;53798;51.680;5.976;2022-07-24T08:00:33;16.42;;;12.07;;
66886;SDS011;53798;51.680;5.976;2022-07-24T08:03:01;14.98;;;11.20;;
66886;SDS011;53798;51.680;5.976;2022-07-24T08:05:29;18.17;;;12.65;;
66886;SDS011;53798;51.680;5.976;2022-07-24T08:07:57;15.15;;;11.88;;
66886;SDS011;53798;51.680;5.976;2022-07-24T08:10:24;15.30;;;11.02;;
66886;SDS011;53798;51.680;5.976;2022-07-24T08:12:52;13.00;;;10.25;;
66886;SDS011;53798;51.680;5.976;2022-07-24T08:15:19;16.55;;;10.35;;
66886;SDS011;53798;51.680;5.976;2022-07-24T08:17:50;16.45;;;10.55;;
66886;SDS011;53798;51.680;5.976;2022-07-24T08:20:19;12.25;;;9.13;;
66886;SDS011;53798;51.680;5.976;2022-07-24T08:22:47;11.40;;;8.95;;
66886;SDS011;53798;51.680;5.976;2022-07-24T08:25:15;13.90;;;9.40;;
66886;SDS011;53798;51.680;5.976;2022-07-24T08:27:46;13.13;;;8.80;;
66886;SDS011;53798;51.680;5.976;2022-07-24T08:30:14;12.55;;;7.93;;
66886;SDS011;53798;51.680;5.976;2022-07-24T08:32:41;9.20;;;7.80;;
66886;SDS011;53798;51.680;5.976;2022-07-24T08:35:10;10.88;;;8.18;;
66886;SDS011;53798;51.680;5.976;2022-07-24T08:37:39;11.80;;;7.90;;
66886;SDS011;53798;51.680;5.976;2022-07-24T08:40:08;9.18;;;7.07;;
66886;SDS011;53798;51.680;5.976;2022-07-24T08:42:37;12.38;;;7.80;;
66886;SDS011;53798;51.680;5.976;2022-07-24T08:45:05;10.13;;;6.97;;
66886;SDS011;53798;51.680;5.976;2022-07-24T08:47:34;10.20;;;6.88;;
66886;SDS011;53798;51.680;5.976;2022-07-24T08:50:01;6.75;;;5.95;;
66886;SDS011;53798;51.680;5.976;2022-07-24T08:52:29;7.35;;;5.28;;
66886;SDS011;53798;51.680;5.976;2022-07-24T08:54:58;7.97;;;5.40;;
66886;SDS011;53798;51.680;5.976;2022-07-24T08:57:26;9.20;;;5.35;;
66886;SDS011;53798;51.680;5.976;2022-07-24T08:59:53;6.50;;;4.82;;
66886;SDS011;53798;51.680;5.976;2022-07-24T09:02:20;7.13;;;4.70;;
66886;SDS011;53798;51.680;5.976;2022-07-24T09:04:48;6.53;;;4.70;;
66886;SDS011;53798;51.680;5.976;2022-07-24T09:07:19;8.88;;;4.35;;
66886;SDS011;53798;51.680;5.976;2022-07-24T09:10:02;10.95;;;4.63;;
66886;SDS011;53798;51.680;5.976;2022-07-24T09:12:33;6.55;;;4.30;;
66886;SDS011;53798;51.680;5.976;2022-07-24T09:15:16;8.00;;;4.78;;
66886;SDS011;53798;51.680;5.976;2022-07-24T09:17:57;5.68;;;3.58;;
66886;SDS011;53798;51.680;5.976;2022-07-24T09:20:28;8.15;;;4.43;;
66886;SDS011;53798;51.680;5.976;2022-07-24T09:22:59;6.53;;;2.90;;
66886;SDS011;53798;51.680;5.976;2022-07-24T09:28:03;3.00;;;2.15;;
66886;SDS011;53798;51.680;5.976;2022-07-24T09:30:31;3.90;;;2.75;;
66886;SDS011;53798;51.680;5.976;2022-07-24T09:33:15;3.17;;;2.15;;
66886;SDS011;53798;51.680;5.976;2022-07-24T09:35:50;3.90;;;2.63;;
66886;SDS011;53798;51.680;5.976;2022-07-24T09:38:25;4.15;;;2.58;;
66886;SDS011;53798;51.680;5.976;2022-07-24T09:40:54;4.95;;;2.80;;
66886;SDS011;53798;51.680;5.976;2022-07-24T09:43:29;3.97;;;2.40;;
66886;SDS011;53798;51.680;5.976;2022-07-24T09:48:39;2.75;;;2.47;;
66886;SDS011;53798;51.680;5.976;2022-07-24T09:51:17;2.28;;;1.90;;
66886;SDS011;53798;51.680;5.976;2022-07-24T09:53:46;5.05;;;1.90;;
66886;SDS011;53798;51.680;5.976;2022-07-24T09:56:21;4.65;;;2.10;;
66886;SDS011;53798;51.680;5.976;2022-07-24T09:58:53;2.67;;;2.17;;
66886;SDS011;53798;51.680;5.976;2022-07-24T10:03:55;3.47;;;2.00;;
66886;SDS011;53798;51.680;5.976;2022-07-24T10:06:24;5.43;;;2.03;;
66886;SDS011;53798;51.680;5.976;2022-07-24T10:08:55;3.20;;;1.95;;
66886;SDS011;53798;51.680;5.976;2022-07-24T10:11:23;2.95;;;1.77;;
66886;SDS011;53798;51.680;5.976;2022-07-24T10:13:51;2.20;;;1.90;;
66886;SDS011;53798;51.680;5.976;2022-07-24T10:16:31;1.88;;;1.75;;
66886;SDS011;53798;51.680;5.976;2022-07-24T10:19:00;2.00;;;1.80;;
66886;SDS011;53798;51.680;5.976;2022-07-24T10:21:36;3.20;;;1.60;;
66886;SDS011;53798;51.680;5.976;2022-07-24T10:26:41;2.10;;;1.65;;
66886;SDS011;53798;51.680;5.976;2022-07-24T10:31:48;4.38;;;1.70;;
66886;SDS011;53798;51.680;5.976;2022-07-24T10:37:37;2.50;;;1.83;;
66886;SDS011;53798;51.680;5.976;2022-07-24T10:59:05;2.25;;;1.50;;
66886;SDS011;53798;51.680;5.976;2022-07-24T11:01:41;3.80;;;1.70;;
66886;SDS011;53798;51.680;5.976;2022-07-24T11:06:47;3.28;;;1.92;;
66886;SDS011;53798;51.680;5.976;2022-07-24T11:09:21;1.60;;;1.35;;
66886;SDS011;53798;51.680;5.976;2022-07-24T11:14:23;2.00;;;1.52;;
66886;SDS011;53798;51.680;5.976;2022-07-24T11:16:52;1.95;;;1.50;;
66886;SDS011;53798;51.680;5.976;2022-07-24T11:21:46;1.92;;;1.38;;
66886;SDS011;53798;51.680;5.976;2022-07-24T11:26:56;1.45;;;1.23;;
66886;SDS011;53798;51.680;5.976;2022-07-24T11:29:36;1.95;;;1.42;;
66886;SDS011;53798;51.680;5.976;2022-07-24T11:32:06;1.63;;;1.40;;
66886;SDS011;53798;51.680;5.976;2022-07-24T11:34:51;1.48;;;1.27;;
66886;SDS011;53798;51.680;5.976;2022-07-24T11:37:18;2.75;;;1.17;;
66886;SDS011;53798;51.680;5.976;2022-07-24T11:39:47;1.92;;;1.10;;
66886;SDS011;53798;51.680;5.976;2022-07-24T11:42:16;5.88;;;1.50;;
66886;SDS011;53798;51.680;5.976;2022-07-24T11:44:45;3.58;;;1.40;;
66886;SDS011;53798;51.680;5.976;2022-07-24T11:47:16;4.28;;;1.25;;
66886;SDS011;53798;51.680;5.976;2022-07-24T11:49:46;2.17;;;1.13;;
66886;SDS011;53798;51.680;5.976;2022-07-24T11:52:26;2.10;;;1.15;;
66886;SDS011;53798;51.680;5.976;2022-07-24T11:55:02;2.20;;;1.25;;
66886;SDS011;53798;51.680;5.976;2022-07-24T11:57:52;1.75;;;1.30;;
66886;SDS011;53798;51.680;5.976;2022-07-24T12:00:42;2.88;;;1.20;;
66886;SDS011;53798;51.680;5.976;2022-07-24T12:03:10;2.15;;;1.10;;
66886;SDS011;53798;51.680;5.976;2022-07-24T12:05:38;4.10;;;1.42;;
66886;SDS011;53798;51.680;5.976;2022-07-24T12:08:18;1.60;;;1.20;;
66886;SDS011;53798;51.680;5.976;2022-07-24T12:10:55;1.70;;;1.30;;
66886;SDS011;53798;51.680;5.976;2022-07-24T12:13:24;1.60;;;1.17;;
66886;SDS011;53798;51.680;5.976;2022-07-24T12:15:53;3.30;;;1.17;;
66886;SDS011;53798;51.680;5.976;2022-07-24T12:18:21;1.35;;;1.25;;
66886;SDS011;53798;51.680;5.976;2022-07-24T12:20:58;1.88;;;1.30;;
66886;SDS011;53798;51.680;5.976;2022-07-24T12:23:28;1.73;;;1.35;;
66886;SDS011;53798;51.680;5.976;2022-07-24T12:25:59;1.80;;;1.13;;
66886;SDS011;53798;51.680;5.976;2022-07-24T12:28:28;1.42;;;1.13;;
66886;SDS011;53798;51.680;5.976;2022-07-24T12:30:56;2.92;;;1.20;;
66886;SDS011;53798;51.680;5.976;2022-07-24T12:33:24;4.10;;;1.30;;
66886;SDS011;53798;51.680;5.976;2022-07-24T12:38:40;4.45;;;1.23;;
66886;SDS011;53798;51.680;5.976;2022-07-24T12:41:29;1.38;;;1.20;;
66886;SDS011;53798;51.680;5.976;2022-07-24T12:43:58;1.77;;;1.25;;
66886;SDS011;53798;51.680;5.976;2022-07-24T12:49:09;1.65;;;1.15;;
66886;SDS011;53798;51.680;5.976;2022-07-24T12:51:53;1.48;;;1.23;;
66886;SDS011;53798;51.680;5.976;2022-07-24T12:54:31;2.95;;;1.20;;
66886;SDS011;53798;51.680;5.976;2022-07-24T12:57:10;1.20;;;1.10;;
66886;SDS011;53798;51.680;5.976;2022-07-24T12:59:46;5.75;;;1.30;;
66886;SDS011;53798;51.680;5.976;2022-07-24T13:04:52;2.88;;;1.30;;
66886;SDS011;53798;51.680;5.976;2022-07-24T13:07:25;1.83;;;1.30;;
66886;SDS011;53798;51.680;5.976;2022-07-24T13:09:53;1.70;;;1.08;;
66886;SDS011;53798;51.680;5.976;2022-07-24T13:12:20;1.75;;;1.20;;
66886;SDS011;53798;51.680;5.976;2022-07-24T13:14:49;1.65;;;1.20;;
66886;SDS011;53798;51.680;5.976;2022-07-24T13:17:17;2.90;;;1.10;;
66886;SDS011;53798;51.680;5.976;2022-07-24T13:19:49;2.08;;;1.10;;
66886;SDS011;53798;51.680;5.976;2022-07-24T13:22:33;1.33;;;1.10;;
66886;SDS011;53798;51.680;5.976;2022-07-24T13:25:00;1.23;;;1.10;;
66886;SDS011;53798;51.680;5.976;2022-07-24T13:27:28;1.23;;;1.10;;
66886;SDS011;53798;51.680;5.976;2022-07-24T13:30:15;2.58;;;1.45;;
66886;SDS011;53798;51.680;5.976;2022-07-24T13:32:42;3.03;;;1.40;;
66886;SDS011;53798;51.680;5.976;2022-07-24T13:35:09;1.85;;;1.30;;
66886;SDS011;53798;51.680;5.976;2022-07-24T13:37:37;4.25;;;1.35;;
66886;SDS011;53798;51.680;5.976;2022-07-24T13:40:10;2.22;;;1.20;;
66886;SDS011;53798;51.680;5.976;2022-07-24T13:42:40;1.42;;;1.30;;
66886;SDS011;53798;51.680;5.976;2022-07-24T13:45:09;1.75;;;1.50;;
66886;SDS011;53798;51.680;5.976;2022-07-24T13:47:36;1.52;;;1.30;;
66886;SDS011;53798;51.680;5.976;2022-07-24T13:50:04;2.00;;;1.27;;
66886;SDS011;53798;51.680;5.976;2022-07-24T13:52:32;1.70;;;1.27;;
66886;SDS011;53798;51.680;5.976;2022-07-24T13:54:59;2.20;;;1.23;;
66886;SDS011;53798;51.680;5.976;2022-07-24T13:57:26;1.50;;;1.40;;
66886;SDS011;53798;51.680;5.976;2022-07-24T13:59:53;1.88;;;1.20;;
66886;SDS011;53798;51.680;5.976;2022-07-24T14:02:20;3.70;;;1.30;;
66886;SDS011;53798;51.680;5.976;2022-07-24T14:04:47;2.50;;;1.20;;
66886;SDS011;53798;51.680;5.976;2022-07-24T14:07:16;2.33;;;1.15;;
66886;SDS011;53798;51.680;5.976;2022-07-24T14:09:43;2.78;;;1.20;;
66886;SDS011;53798;51.680;5.976;2022-07-24T14:12:10;1.20;;;1.10;;
66886;SDS011;53798;51.680;5.976;2022-07-24T14:14:39;2.60;;;1.23;;
66886;SDS011;53798;51.680;5.976;2022-07-24T14:17:07;1.42;;;1.25;;
66886;SDS011;53798;51.680;5.976;2022-07-24T14:19:34;2.17;;;1.17;;
66886;SDS011;53798;51.680;5.976;2022-07-24T14:22:01;2.70;;;1.30;;
66886;SDS011;53798;51.680;5.976;2022-07-24T14:24:28;3.30;;;1.50;;
66886;SDS011;53798;51.680;5.976;2022-07-24T14:26:56;1.65;;;1.30;;
66886;SDS011;53798;51.680;5.976;2022-07-24T14:29:24;4.15;;;1.50;;
66886;SDS011;53798;51.680;5.976;2022-07-24T14:31:52;1.80;;;1.30;;
66886;SDS011;53798;51.680;5.976;2022-07-24T14:34:19;3.03;;;1.40;;
66886;SDS011;53798;51.680;5.976;2022-07-24T14:36:46;2.30;;;1.45;;
66886;SDS011;53798;51.680;5.976;2022-07-24T14:39:13;3.63;;;1.25;;
66886;SDS011;53798;51.680;5.976;2022-07-24T14:41:41;1.63;;;1.25;;
66886;SDS011;53798;51.680;5.976;2022-07-24T14:44:08;2.75;;;1.42;;
66886;SDS011;53798;51.680;5.976;2022-07-24T14:46:37;3.33;;;1.30;;
66886;SDS011;53798;51.680;5.976;2022-07-24T14:49:07;1.67;;;1.30;;
66886;SDS011;53798;51.680;5.976;2022-07-24T14:51:35;2.15;;;1.55;;
66886;SDS011;53798;51.680;5.976;2022-07-24T14:54:04;2.22;;;1.20;;
66886;SDS011;53798;51.680;5.976;2022-07-24T14:56:35;2.10;;;1.40;;
66886;SDS011;53798;51.680;5.976;2022-07-24T14:59:04;4.10;;;1.60;;
66886;SDS011;53798;51.680;5.976;2022-07-24T15:01:32;1.40;;;1.30;;
66886;SDS011;53798;51.680;5.976;2022-07-24T15:04:05;1.92;;;1.48;;
66886;SDS011;53798;51.680;5.976;2022-07-24T15:06:35;2.25;;;1.50;;
66886;SDS011;53798;51.680;5.976;2022-07-24T15:09:03;5.13;;;1.23;;
66886;SDS011;53798;51.680;5.976;2022-07-24T15:11:32;1.60;;;1.50;;
66886;SDS011;53798;51.680;5.976;2022-07-24T15:13:59;2.67;;;1.50;;
66886;SDS011;53798;51.680;5.976;2022-07-24T15:16:27;2.65;;;1.45;;
66886;SDS011;53798;51.680;5.976;2022-07-24T15:18:54;2.60;;;1.40;;
66886;SDS011;53798;51.680;5.976;2022-07-24T15:21:21;2.70;;;1.70;;
66886;SDS011;53798;51.680;5.976;2022-07-24T15:23:48;3.35;;;1.73;;
66886;SDS011;53798;51.680;5.976;2022-07-24T15:26:16;3.25;;;1.58;;
66886;SDS011;53798;51.680;5.976;2022-07-24T15:28:43;3.60;;;1.70;;
66886;SDS011;53798;51.680;5.976;2022-07-24T15:31:10;3.40;;;2.03;;
66886;SDS011;53798;51.680;5.976;2022-07-24T15:33:37;2.00;;;1.70;;
66886;SDS011;53798;51.680;5.976;2022-07-24T15:36:05;2.13;;;1.90;;
66886;SDS011;53798;51.680;5.976;2022-07-24T15:38:34;4.00;;;1.77;;
66886;SDS011;53798;51.680;5.976;2022-07-24T15:41:01;2.83;;;1.95;;